Time;durP1;ratioP1;P1;durP2;ratioP2;P2;SDS_P1;SDS_P2;PMS_P1;PMS_P2;Temp;Humidity;BMP_temperature;BMP_pressure;BME280_temperature;BME280_humidity;BME280_pressure;Samples;Min_cycle;Max_cycle;Signal;HPM_P1;HPM_P2
2021/06/29 00:01:58;;;;;;;4.35;3.95;;;17.20;98.60;;;;;;5051994;28;20025;-70
2021/06/29 00:04:24;;;;;;;6.10;4.35;;;17.30;98.70;;;;;;5050813;28;20047;-70
2021/06/29 00:06:50;;;;;;;6.18;4.43;;;17.20;98.80;;;;;;5050317;28;20021;-70
2021/06/29 00:09:15;;;;;;;5.10;4.20;;;17.30;98.80;;;;;;5050869;28;20048;-70
2021/06/29 00:11:42;;;;;;;5.35;3.78;;;17.30;98.70;;;;;;5042002;28;20437;-70
2021/06/29 00:14:07;;;;;;;4.75;3.60;;;17.30;98.80;;;;;;5051271;28;20029;-70
2021/06/29 00:16:34;;;;;;;4.20;3.75;;;17.30;98.70;;;;;;5050472;28;20029;-70
2021/06/29 00:18:59;;;;;;;5.38;4.05;;;17.30;98.80;;;;;;5051165;28;20092;-70
2021/06/29 00:21:25;;;;;;;6.55;4.47;;;17.30;98.90;;;;;;5032815;28;20407;-70
2021/06/29 00:23:50;;;;;;;7.03;4.80;;;17.40;99.00;;;;;;5049764;28;20025;-70
2021/06/29 00:26:16;;;;;;;8.90;5.72;;;17.40;99.00;;;;;;5045148;28;20036;-70
2021/06/29 00:28:42;;;;;;;7.75;5.80;;;17.40;99.00;;;;;;5051301;28;20370;-69
2021/06/29 00:31:08;;;;;;;10.70;4.68;;;17.40;99.10;;;;;;5050872;28;20032;-70
2021/06/29 00:33:33;;;;;;;7.30;5.35;;;17.40;99.10;;;;;;5050450;28;20060;-70
2021/06/29 00:35:59;;;;;;;8.32;4.50;;;17.40;99.10;;;;;;5050240;28;20029;-71
2021/06/29 00:38:24;;;;;;;6.50;4.45;;;17.40;99.10;;;;;;5050644;28;20100;-70
2021/06/29 00:40:51;;;;;;;5.25;4.63;;;17.40;99.10;;;;;;5050345;28;20068;-70
2021/06/29 00:43:16;;;;;;;7.15;4.47;;;17.40;99.10;;;;;;5050443;28;20037;-70
2021/06/29 00:45:42;;;;;;;8.18;5.20;;;17.40;99.10;;;;;;5049929;28;20036;-70
2021/06/29 00:48:08;;;;;;;6.32;4.80;;;17.40;99.10;;;;;;5050591;28;20025;-70
2021/06/29 00:50:34;;;;;;;6.38;4.40;;;17.40;99.10;;;;;;5050350;28;20040;-70
2021/06/29 00:53:00;;;;;;;5.60;4.47;;;17.40;99.20;;;;;;5032940;28;20058;-70
2021/06/29 00:55:25;;;;;;;6.25;4.53;;;17.40;99.20;;;;;;5039327;28;20105;-70
2021/06/29 00:57:52;;;;;;;6.20;4.15;;;17.40;99.30;;;;;;5032479;28;20041;-70
2021/06/29 01:00:19;;;;;;;9.45;4.57;;;17.50;99.40;;;;;;5050245;28;20040;-70
2021/06/29 01:02:45;;;;;;;5.15;4.63;;;17.50;99.40;;;;;;5032159;28;20101;-70
2021/06/29 01:05:11;;;;;;;6.07;4.70;;;17.50;99.40;;;;;;5049632;28;20370;-70
2021/06/29 01:07:37;;;;;;;6.15;5.38;;;17.60;99.50;;;;;;5045958;28;20096;-70
2021/06/29 01:10:07;;;;;;;5.90;4.93;;;17.60;99.50;;;;;;5030532;28;20068;-69
2021/06/29 01:12:34;;;;;;;5.78;4.35;;;17.60;99.40;;;;;;5040272;28;20039;-70
2021/06/29 01:15:00;;;;;;;4.82;4.10;;;17.60;99.30;;;;;;5049417;28;20071;-70
2021/06/29 01:17:25;;;;;;;5.60;4.72;;;17.60;99.30;;;;;;5049787;28;20033;-69
2021/06/29 01:19:52;;;;;;;4.68;4.18;;;17.60;99.30;;;;;;5032169;28;20025;-70
2021/06/29 01:22:19;;;;;;;5.22;3.95;;;17.60;99.20;;;;;;5049169;28;20033;-70
2021/06/29 01:24:50;;;;;;;5.18;4.68;;;17.50;99.00;;;;;;5031156;28;20018;-69
2021/06/29 01:32:30;;;;;;;5.90;4.55;;;17.40;99.20;;;;;;5051249;28;20478;-69
2021/06/29 01:34:55;;;;;;;5.93;4.50;;;17.40;99.30;;;;;;5053378;28;20053;-69
2021/06/29 01:37:22;;;;;;;9.63;4.60;;;17.40;99.10;;;;;;5053940;28;20075;-70
2021/06/29 01:39:55;;;;;;;5.75;4.90;;;17.30;99.00;;;;;;5054447;28;20046;-70
2021/06/29 01:42:21;;;;;;;9.85;4.85;;;17.30;99.10;;;;;;5053239;28;20029;-70
2021/06/29 01:44:46;;;;;;;6.22;5.63;;;17.20;99.00;;;;;;5053109;28;20035;-70
2021/06/29 01:47:19;;;;;;;10.00;8.50;;;17.10;99.10;;;;;;5053499;28;20045;-70
2021/06/29 01:49:45;;;;;;;16.38;10.93;;;17.10;99.10;;;;;;5054008;28;20094;-70
2021/06/29 01:52:10;;;;;;;17.17;11.02;;;17.10;99.20;;;;;;5036059;28;20719;-70
2021/06/29 01:54:36;;;;;;;17.00;11.35;;;17.10;99.20;;;;;;5049733;28;20024;-70
2021/06/29 01:57:02;;;;;;;12.43;10.05;;;17.00;99.30;;;;;;5053447;28;20028;-69
2021/06/29 01:59:28;;;;;;;15.63;10.43;;;17.00;99.50;;;;;;5053677;28;20361;-70
2021/06/29 02:01:53;;;;;;;14.95;10.35;;;17.00;99.40;;;;;;5053347;28;20029;-70
2021/06/29 02:04:23;;;;;;;12.10;9.82;;;17.00;99.50;;;;;;5053552;28;20416;-70
2021/06/29 02:06:49;;;;;;;12.90;9.07;;;17.00;99.50;;;;;;5052379;28;20017;-70
2021/06/29 02:09:16;;;;;;;10.48;9.23;;;17.00;99.40;;;;;;5044545;28;20037;-70
2021/06/29 02:11:42;;;;;;;9.15;8.10;;;17.00;99.50;;;;;;5033170;28;20026;-70
2021/06/29 02:14:08;;;;;;;10.55;8.15;;;17.00;99.40;;;;;;5034802;28;20036;-70
2021/06/29 02:16:34;;;;;;;9.18;7.78;;;17.00;99.50;;;;;;5051771;28;20697;-70
2021/06/29 02:19:00;;;;;;;10.60;7.35;;;16.90;99.50;;;;;;5053188;28;20482;-70
2021/06/29 02:21:26;;;;;;;11.70;8.27;;;17.00;99.60;;;;;;5053640;28;20032;-70
2021/06/29 02:23:51;;;;;;;11.13;7.72;;;17.00;99.70;;;;;;5039359;28;20029;-69
2021/06/29 02:26:18;;;;;;;8.48;6.60;;;17.00;99.70;;;;;;5034905;28;20065;-69
2021/06/29 02:28:43;;;;;;;13.52;6.93;;;17.00;99.60;;;;;;5048595;28;20436;-70
2021/06/29 02:31:09;;;;;;;8.23;5.95;;;17.00;99.60;;;;;;5053397;28;20029;-69
2021/06/29 02:33:35;;;;;;;7.35;5.95;;;17.00;99.60;;;;;;5052344;28;20029;-69
2021/06/29 02:36:01;;;;;;;7.65;5.28;;;17.00;99.60;;;;;;5034765;28;20079;-69
2021/06/29 02:38:27;;;;;;;6.72;5.60;;;16.90;99.60;;;;;;5052206;28;20071;-69
2021/06/29 02:40:53;;;;;;;8.18;5.75;;;16.90;99.60;;;;;;5052716;28;20438;-69
2021/06/29 02:43:19;;;;;;;7.50;5.75;;;16.90;99.60;;;;;;5052909;28;20041;-69
2021/06/29 02:45:45;;;;;;;8.68;5.85;;;16.90;99.70;;;;;;5033973;28;20024;-69
2021/06/29 02:48:12;;;;;;;6.22;5.45;;;16.90;99.60;;;;;;5052803;28;20029;-69
2021/06/29 02:50:38;;;;;;;7.68;5.13;;;16.80;99.60;;;;;;5052761;28;20461;-69
2021/06/29 02:53:04;;;;;;;5.53;5.03;;;16.80;99.60;;;;;;5052361;28;20059;-70
2021/06/29 02:55:30;;;;;;;6.22;5.63;;;16.80;99.70;;;;;;5040950;28;20026;-69
2021/06/29 02:57:55;;;;;;;5.97;4.97;;;16.80;99.80;;;;;;5043695;28;20032;-69
2021/06/29 03:00:21;;;;;;;6.35;4.72;;;16.80;99.90;;;;;;5053144;28;20082;-69
2021/06/29 03:02:47;;;;;;;7.60;5.18;;;16.80;99.80;;;;;;5052338;28;20211;-69
2021/06/29 03:05:14;;;;;;;6.53;5.28;;;16.80;99.80;;;;;;5051833;28;20537;-69
2021/06/29 03:07:40;;;;;;;6.90;5.15;;;16.80;99.80;;;;;;5039845;28;20072;-69
2021/06/29 03:10:07;;;;;;;6.28;5.60;;;16.80;99.80;;;;;;5040625;28;20040;-69
2021/06/29 03:12:33;;;;;;;6.53;5.75;;;16.80;99.90;;;;;;5039787;28;20108;-69
2021/06/29 03:15:01;;;;;;;7.75;5.28;;;16.80;99.90;;;;;;5031725;28;20052;-69
2021/06/29 03:17:27;;;;;;;8.18;5.18;;;16.80;99.90;;;;;;5049776;28;20028;-69
2021/06/29 03:19:53;;;;;;;8.60;5.90;;;16.80;99.90;;;;;;5052530;28;20020;-69
2021/06/29 03:22:19;;;;;;;7.10;6.28;;;16.80;99.90;;;;;;5050829;28;20036;-69
2021/06/29 03:24:45;;;;;;;9.65;6.53;;;16.80;99.90;;;;;;5038496;28;20571;-69
2021/06/29 03:27:10;;;;;;;7.18;6.00;;;16.80;99.90;;;;;;5049196;28;20052;-69
2021/06/29 03:29:37;;;;;;;6.78;5.65;;;16.80;99.90;;;;;;5034715;28;20020;-69
2021/06/29 03:32:04;;;;;;;8.43;6.15;;;16.80;99.90;;;;;;5051818;28;20029;-69
2021/06/29 03:34:30;;;;;;;6.97;6.13;;;16.80;99.90;;;;;;5033777;28;20082;-69
2021/06/29 03:36:56;;;;;;;7.93;5.93;;;16.80;99.90;;;;;;5051533;28;20477;-69
2021/06/29 03:39:21;;;;;;;8.10;5.63;;;16.80;99.90;;;;;;5051912;28;20156;-69
2021/06/29 03:41:47;;;;;;;8.60;5.47;;;16.80;99.90;;;;;;5034380;28;20359;-69
2021/06/29 03:44:13;;;;;;;4.80;4.30;;;16.80;99.90;;;;;;5051954;28;20068;-69
2021/06/29 03:46:38;;;;;;;5.20;4.32;;;16.80;99.90;;;;;;5051497;28;20051;-70
2021/06/29 03:49:04;;;;;;;6.30;4.00;;;16.80;99.90;;;;;;5051712;28;20031;-69
2021/06/29 03:51:30;;;;;;;5.25;4.32;;;16.70;99.90;;;;;;5052249;28;20027;-69
2021/06/29 03:53:56;;;;;;;4.90;4.47;;;16.80;99.90;;;;;;5051271;28;20453;-67
2021/06/29 03:56:28;;;;;;;7.28;5.05;;;16.80;99.90;;;;;;5049871;28;20036;-68
2021/06/29 03:58:55;;;;;;;;;;;16.90;99.90;;;;;;5051904;28;20733;-68
2021/06/29 04:01:21;;;;;;;4.95;4.50;;;16.90;99.90;;;;;;5051169;28;20368;-68
2021/06/29 04:03:48;;;;;;;4.75;4.30;;;16.90;99.90;;;;;;5051215;28;20120;-68
2021/06/29 04:06:14;;;;;;;5.28;4.07;;;16.90;99.90;;;;;;5032182;28;20037;-68
2021/06/29 04:08:40;;;;;;;3.90;3.60;;;16.90;99.90;;;;;;5033311;28;20063;-68
2021/06/29 04:11:05;;;;;;;4.50;4.10;;;16.90;99.90;;;;;;5050594;28;20037;-68
2021/06/29 04:13:31;;;;;;;4.72;4.22;;;16.90;99.90;;;;;;5050864;28;20025;-69
2021/06/29 04:15:56;;;;;;;5.18;4.63;;;16.90;99.90;;;;;;5050159;28;20056;-68
2021/06/29 04:18:22;;;;;;;4.78;4.10;;;16.90;99.90;;;;;;5050811;28;20029;-69
2021/06/29 04:20:47;;;;;;;5.53;4.60;;;16.90;99.90;;;;;;5051239;28;20021;-68
2021/06/29 04:23:13;;;;;;;5.57;4.70;;;17.00;99.90;;;;;;5047769;28;20033;-69
2021/06/29 04:25:39;;;;;;;5.40;4.68;;;16.90;99.90;;;;;;5032743;28;20059;-68
2021/06/29 04:28:05;;;;;;;5.95;5.13;;;16.90;99.90;;;;;;5050334;28;20041;-68
2021/06/29 04:30:30;;;;;;;5.90;4.60;;;16.80;99.90;;;;;;5050923;28;20028;-69
2021/06/29 04:32:56;;;;;;;4.47;4.07;;;16.90;99.90;;;;;;5051260;28;20025;-68
2021/06/29 04:35:22;;;;;;;4.18;3.78;;;16.80;99.90;;;;;;5049891;28;20039;-67
2021/06/29 04:37:48;;;;;;;6.47;4.40;;;16.80;99.90;;;;;;5051449;28;20104;-69
2021/06/29 04:40:14;;;;;;;6.68;4.13;;;16.80;99.90;;;;;;5051034;28;20103;-68
2021/06/29 04:42:40;;;;;;;8.95;4.25;;;16.80;99.90;;;;;;5050481;28;20024;-68
2021/06/29 04:45:06;;;;;;;3.95;3.65;;;16.80;99.90;;;;;;5050288;28;20107;-69
2021/06/29 04:47:38;;;;;;;4.03;3.53;;;16.80;99.90;;;;;;5050515;28;20025;-69
2021/06/29 04:50:05;;;;;;;4.78;4.28;;;16.90;99.90;;;;;;5051208;28;20049;-69
2021/06/29 04:52:34;;;;;;;4.57;4.18;;;16.90;99.90;;;;;;5032935;28;20024;-69
2021/06/29 04:54:59;;;;;;;5.85;4.10;;;16.90;99.90;;;;;;5043066;28;20072;-68
2021/06/29 04:57:25;;;;;;;7.25;4.15;;;17.00;99.90;;;;;;5030688;28;20490;-68
2021/06/29 04:59:51;;;;;;;4.05;3.65;;;17.00;99.90;;;;;;5043079;28;20032;-69
2021/06/29 05:02:17;;;;;;;4.60;4.05;;;17.00;99.90;;;;;;5050869;28;20428;-68
2021/06/29 05:04:43;;;;;;;6.93;3.63;;;17.10;99.90;;;;;;5049426;28;20017;-68
2021/06/29 05:07:08;;;;;;;6.75;3.63;;;17.10;99.90;;;;;;5049891;28;20107;-69
2021/06/29 05:09:34;;;;;;;7.32;3.55;;;17.10;99.90;;;;;;5050174;28;20029;-68
2021/06/29 05:11:59;;;;;;;4.32;3.80;;;17.10;99.90;;;;;;5050174;28;20060;-69
2021/06/29 05:14:25;;;;;;;4.22;3.83;;;17.10;99.90;;;;;;5032601;28;20447;-68
2021/06/29 05:16:50;;;;;;;7.30;4.47;;;17.10;99.90;;;;;;5048913;28;20028;-69
2021/06/29 05:19:16;;;;;;;4.53;4.07;;;17.10;99.90;;;;;;5050571;28;20385;-68
2021/06/29 05:21:42;;;;;;;5.35;4.00;;;17.10;99.90;;;;;;5050475;28;20072;-68
2021/06/29 05:24:08;;;;;;;4.50;4.10;;;17.10;99.90;;;;;;5036694;28;20056;-68
2021/06/29 05:26:33;;;;;;;5.35;3.92;;;17.10;99.90;;;;;;5028953;28;20033;-69
2021/06/29 05:28:59;;;;;;;5.53;4.10;;;17.10;99.90;;;;;;5047670;28;20035;-69
2021/06/29 05:31:25;;;;;;;8.13;4.07;;;17.10;99.90;;;;;;5032146;28;20439;-69
2021/06/29 05:33:50;;;;;;;3.60;3.30;;;17.20;99.90;;;;;;5050194;28;20029;-68
2021/06/29 05:36:16;;;;;;;4.57;3.55;;;17.20;99.90;;;;;;5031906;28;20108;-68
2021/06/29 05:38:41;;;;;;;5.40;3.40;;;17.20;99.90;;;;;;5050381;28;20384;-68
2021/06/29 05:41:07;;;;;;;3.92;3.60;;;17.20;99.90;;;;;;5032105;28;20087;-69
2021/06/29 05:43:33;;;;;;;7.95;4.10;;;17.30;99.90;;;;;;5050520;28;20036;-68
2021/06/29 05:45:58;;;;;;;6.28;3.38;;;17.30;99.90;;;;;;5049039;28;20021;-68
2021/06/29 05:48:27;;;;;;;3.92;3.63;;;17.30;99.90;;;;;;5049910;28;20036;-69
2021/06/29 05:50:53;;;;;;;4.47;4.07;;;17.30;99.90;;;;;;5031643;28;20124;-68
2021/06/29 05:53:19;;;;;;;4.40;3.90;;;17.30;99.90;;;;;;5050522;28;20351;-68
2021/06/29 05:55:44;;;;;;;4.22;3.83;;;17.40;99.90;;;;;;5036194;28;20030;-68
2021/06/29 05:58:10;;;;;;;4.65;4.30;;;17.40;99.90;;;;;;5012070;28;20121;-68
2021/06/29 06:00:35;;;;;;;4.93;4.20;;;17.40;99.90;;;;;;5049308;28;20071;-68
2021/06/29 06:03:01;;;;;;;5.70;4.60;;;17.40;99.90;;;;;;5047014;28;20173;-68
2021/06/29 06:05:27;;;;;;;5.50;4.15;;;17.40;99.90;;;;;;5048047;28;20025;-68
2021/06/29 06:07:54;;;;;;;6.30;4.32;;;17.40;99.90;;;;;;5049523;28;20029;-67
2021/06/29 06:10:20;;;;;;;5.30;4.80;;;17.50;99.90;;;;;;5034823;28;20095;-68
2021/06/29 06:12:46;;;;;;;8.43;5.13;;;17.50;99.90;;;;;;5040407;28;20084;-68
2021/06/29 06:15:11;;;;;;;5.85;4.90;;;17.50;99.90;;;;;;5049120;28;20040;-68
2021/06/29 06:17:37;;;;;;;5.43;3.85;;;17.60;99.90;;;;;;5050368;28;20027;-68
2021/06/29 06:20:06;;;;;;;6.10;3.80;;;17.60;99.90;;;;;;5053419;28;20029;-68
2021/06/29 06:22:31;;;;;;;5.47;4.28;;;17.60;99.90;;;;;;5036044;28;20032;-68
2021/06/29 06:24:59;;;;;;;7.95;4.85;;;17.70;99.90;;;;;;5050369;28;20025;-69
2021/06/29 06:27:24;;;;;;;5.25;4.40;;;17.70;99.90;;;;;;5035109;28;20025;-69
2021/06/29 06:29:50;;;;;;;5.75;4.15;;;17.80;99.90;;;;;;5047647;28;20116;-68
2021/06/29 06:32:15;;;;;;;4.00;3.60;;;17.80;99.90;;;;;;5052190;28;20497;-69
2021/06/29 06:34:41;;;;;;;4.45;3.80;;;17.80;99.90;;;;;;5049456;28;20021;-69
2021/06/29 06:37:07;;;;;;;4.80;4.10;;;17.80;99.90;;;;;;5048645;28;20025;-72
2021/06/29 06:39:32;;;;;;;4.43;4.03;;;17.90;99.90;;;;;;5041377;28;20078;-69
2021/06/29 06:41:58;;;;;;;5.07;4.40;;;17.80;99.90;;;;;;5053288;28;20433;-69
2021/06/29 06:44:24;;;;;;;5.65;4.60;;;17.80;99.90;;;;;;5053002;28;20059;-70
2021/06/29 06:46:50;;;;;;;4.90;4.35;;;17.80;99.90;;;;;;5052661;28;20028;-69
2021/06/29 06:49:15;;;;;;;6.57;4.85;;;17.70;99.90;;;;;;5053220;28;20036;-68
2021/06/29 06:51:41;;;;;;;7.38;5.20;;;17.70;99.90;;;;;;5035490;28;20055;-69
2021/06/29 06:54:07;;;;;;;10.05;5.15;;;17.70;99.90;;;;;;5035176;28;20036;-69
2021/06/29 06:56:33;;;;;;;8.25;4.95;;;17.70;99.90;;;;;;5034988;28;20033;-70
2021/06/29 06:58:59;;;;;;;5.78;4.30;;;17.70;99.90;;;;;;5052688;28;20029;-69
2021/06/29 07:01:24;;;;;;;4.72;4.32;;;17.70;99.90;;;;;;5042528;28;20086;-69
2021/06/29 07:03:50;;;;;;;5.72;4.15;;;17.70;99.90;;;;;;5032862;28;20043;-68
2021/06/29 07:06:15;;;;;;;8.05;3.85;;;17.80;99.90;;;;;;5015317;28;20025;-69
2021/06/29 07:08:44;;;;;;;3.70;3.40;;;17.80;99.90;;;;;;5048552;28;20024;-69
2021/06/29 07:11:10;;;;;;;3.65;3.35;;;17.90;99.90;;;;;;5051990;28;20036;-69
2021/06/29 07:13:36;;;;;;;5.68;3.33;;;18.00;99.90;;;;;;5042433;28;20034;-68
2021/06/29 07:16:02;;;;;;;6.30;3.35;;;18.00;99.90;;;;;;5024715;28;20027;-69
2021/06/29 07:18:29;;;;;;;3.60;2.97;;;18.00;99.90;;;;;;5052068;28;20504;-69
2021/06/29 07:20:54;;;;;;;9.88;3.20;;;18.10;99.90;;;;;;5052715;28;20466;-68
2021/06/29 07:23:20;;;;;;;3.85;3.20;;;18.10;99.90;;;;;;5052612;28;20036;-69
2021/06/29 07:25:46;;;;;;;4.38;2.78;;;18.10;99.90;;;;;;5051510;28;20027;-69
2021/06/29 07:28:13;;;;;;;4.10;2.78;;;18.10;99.90;;;;;;5052227;28;20039;-69
2021/06/29 07:30:39;;;;;;;3.88;3.13;;;18.30;99.90;;;;;;5037485;28;20052;-69
2021/06/29 07:33:07;;;;;;;7.13;3.10;;;18.40;99.90;;;;;;5042588;28;20032;-69
2021/06/29 07:35:33;;;;;;;3.55;3.20;;;18.60;99.90;;;;;;5034506;28;20017;-69
2021/06/29 07:38:01;;;;;;;5.10;3.10;;;18.80;99.90;;;;;;5052114;28;20547;-69
2021/06/29 07:40:29;;;;;;;4.80;3.25;;;19.30;99.90;;;;;;5051966;28;20033;-70
2021/06/29 07:42:56;;;;;;;8.32;3.30;;;19.60;99.90;;;;;;5033528;28;20049;-69
2021/06/29 07:45:22;;;;;;;5.72;3.17;;;20.00;99.70;;;;;;5019326;28;20025;-69
2021/06/29 07:47:48;;;;;;;1.80;1.70;;;20.20;99.50;;;;;;5032644;28;20029;-69
2021/06/29 07:50:13;;;;;;;2.05;1.50;;;20.40;99.00;;;;;;5040490;28;20037;-70
2021/06/29 07:52:39;;;;;;;2.58;2.38;;;20.50;98.60;;;;;;5039234;28;20063;-69
2021/06/29 07:55:06;;;;;;;5.32;2.00;;;20.70;98.60;;;;;;5032630;28;20116;-70
2021/06/29 07:57:33;;;;;;;4.70;2.30;;;20.90;98.60;;;;;;5050304;28;20029;-69
2021/06/29 07:59:59;;;;;;;3.05;2.40;;;21.20;98.20;;;;;;5033842;28;20619;-70
2021/06/29 08:02:24;;;;;;;2.35;1.98;;;21.20;97.90;;;;;;5033565;28;20047;-69
2021/06/29 08:04:50;;;;;;;6.72;2.10;;;21.30;97.60;;;;;;5049591;28;20029;-70
2021/06/29 08:07:15;;;;;;;2.40;1.80;;;21.50;97.30;;;;;;5051495;28;20025;-70
2021/06/29 08:09:41;;;;;;;3.40;2.13;;;21.70;96.90;;;;;;5039150;28;20025;-70
2021/06/29 08:12:07;;;;;;;1.83;1.70;;;22.00;96.90;;;;;;5027320;28;20029;-70
2021/06/29 08:14:34;;;;;;;3.55;2.00;;;22.30;96.70;;;;;;5051578;28;20453;-70
2021/06/29 08:17:01;;;;;;;2.47;1.58;;;22.60;96.30;;;;;;5018322;28;20037;-70
2021/06/29 08:19:27;;;;;;;3.05;1.67;;;22.90;96.00;;;;;;5039192;28;20052;-70
2021/06/29 08:21:53;;;;;;;4.78;1.15;;;23.20;95.00;;;;;;5031751;28;20028;-69
2021/06/29 08:24:19;;;;;;;2.38;1.30;;;23.30;94.30;;;;;;5013763;28;20029;-70
2021/06/29 08:26:45;;;;;;;5.13;4.47;;;23.30;94.70;;;;;;5033014;28;20025;-70
2021/06/29 08:29:12;;;;;;;7.72;3.83;;;23.60;95.00;;;;;;5051556;28;20104;-70
2021/06/29 08:31:38;;;;;;;1.98;1.42;;;23.80;94.90;;;;;;5051743;28;20029;-70
2021/06/29 08:34:04;;;;;;;2.00;1.13;;;24.20;94.90;;;;;;5051033;28;20036;-70
2021/06/29 08:36:30;;;;;;;2.28;1.20;;;24.50;94.50;;;;;;5032775;28;20075;-70
2021/06/29 08:38:57;;;;;;;1.33;1.23;;;24.70;94.00;;;;;;5050629;28;20359;-70
2021/06/29 08:41:23;;;;;;;0.90;0.90;;;25.00;93.80;;;;;;5051421;28;20040;-70
2021/06/29 08:43:51;;;;;;;2.35;1.15;;;25.20;93.00;;;;;;5033653;28;20025;-69
2021/06/29 08:46:17;;;;;;;1.35;1.10;;;25.40;92.70;;;;;;5050266;28;20024;-70
2021/06/29 08:48:43;;;;;;;1.85;1.10;;;25.80;92.00;;;;;;5051136;28;20498;-70
2021/06/29 08:51:09;;;;;;;0.93;0.93;;;26.20;91.90;;;;;;5034681;28;20025;-70
2021/06/29 08:53:35;;;;;;;2.63;1.00;;;26.60;91.00;;;;;;5044935;28;20029;-70
2021/06/29 08:56:02;;;;;;;2.33;1.10;;;27.20;90.50;;;;;;5050015;28;20028;-70
2021/06/29 08:58:31;;;;;;;2.50;1.20;;;27.70;88.80;;;;;;5051042;28;20087;-70
2021/06/29 09:00:57;;;;;;;1.20;1.00;;;28.20;87.00;;;;;;5033028;28;20485;-70
2021/06/29 09:03:22;;;;;;;1.10;0.88;;;28.60;85.40;;;;;;5051098;28;20033;-70
2021/06/29 09:05:51;;;;;;;3.75;3.45;;;29.10;84.60;;;;;;5049966;28;20082;-70
2021/06/29 09:08:20;;;;;;;1.77;0.90;;;29.60;83.40;;;;;;5050005;28;20087;-70
2021/06/29 09:11:04;;;;;;;1.25;0.82;;;30.00;80.70;;;;;;5050857;28;20029;-70
2021/06/29 09:13:30;;;;;;;1.83;0.85;;;30.40;81.00;;;;;;5050335;28;20017;-70
2021/06/29 09:15:56;;;;;;;1.20;0.90;;;30.90;79.70;;;;;;5042184;28;20036;-70
2021/06/29 09:18:31;;;;;;;1.38;0.80;;;31.00;77.50;;;;;;5038202;28;20028;-70
2021/06/29 09:21:08;;;;;;;0.52;0.52;;;31.30;77.30;;;;;;5043176;28;20030;-68
2021/06/29 09:23:38;;;;;;;0.60;0.60;;;31.50;75.60;;;;;;5049989;28;20614;-70
2021/06/29 09:26:14;;;;;;;1.52;0.82;;;31.50;73.50;;;;;;5032145;28;20064;-70
2021/06/29 09:28:47;;;;;;;1.00;0.68;;;31.20;73.00;;;;;;5050682;28;20552;-70
2021/06/29 09:31:18;;;;;;;1.00;0.55;;;31.00;72.90;;;;;;5050500;28;20036;-69
2021/06/29 09:33:43;;;;;;;1.23;1.13;;;31.10;73.10;;;;;;5048050;28;20031;-70
2021/06/29 09:36:21;;;;;;;1.08;0.80;;;31.30;72.70;;;;;;5045378;28;20096;-70
2021/06/29 09:38:49;;;;;;;1.25;0.60;;;31.40;71.20;;;;;;5019700;28;20021;-68
2021/06/29 09:41:18;;;;;;;1.60;0.73;;;31.60;71.50;;;;;;5049653;28;20025;-68
2021/06/29 09:43:46;;;;;;;0.70;0.70;;;31.80;70.00;;;;;;5050058;28;20051;-68
2021/06/29 09:46:15;;;;;;;1.35;0.80;;;32.20;69.30;;;;;;5042233;23;20045;-71
2021/06/29 09:48:44;;;;;;;0.90;0.65;;;32.20;67.90;;;;;;5053017;28;20017;-72
2021/06/29 09:51:27;;;;;;;0.88;0.70;;;32.10;68.50;;;;;;5051602;28;20116;-71
2021/06/29 09:53:54;;;;;;;0.88;0.68;;;32.30;68.90;;;;;;5051926;28;20033;-71
2021/06/29 09:56:24;;;;;;;3.50;0.80;;;32.40;69.00;;;;;;5024938;28;20064;-71
2021/06/29 09:58:51;;;;;;;1.08;0.85;;;32.40;69.10;;;;;;5046115;28;20049;-71
2021/06/29 10:01:20;;;;;;;0.82;0.82;;;32.50;69.30;;;;;;5053813;28;20501;-71
2021/06/29 10:03:49;;;;;;;1.08;0.63;;;32.30;67.60;;;;;;5053718;28;20025;-72
2021/06/29 10:06:36;;;;;;;1.20;0.70;;;31.70;68.30;;;;;;5053252;28;20029;-71
2021/06/29 10:09:01;;;;;;;0.63;0.63;;;31.30;70.20;;;;;;5053038;28;20492;-71
2021/06/29 10:11:32;;;;;;;2.00;0.80;;;31.20;72.10;;;;;;5053762;28;20056;-71
2021/06/29 10:14:22;;;;;;;1.92;0.68;;;31.00;71.20;;;;;;5053537;28;20037;-71
2021/06/29 10:16:51;;;;;;;0.95;0.60;;;30.80;70.90;;;;;;5051262;28;20514;-71
2021/06/29 10:19:48;;;;;;;0.80;0.80;;;30.70;72.80;;;;;;5044331;28;20473;-71
2021/06/29 10:22:10;;;;;;;1.08;0.70;;;30.60;73.20;;;;;;5033590;28;20071;-72
2021/06/29 10:24:37;;;;;;;1.70;0.80;;;30.50;75.40;;;;;;5052643;28;20017;-72
2021/06/29 10:27:07;;;;;;;1.67;0.60;;;30.50;75.10;;;;;;5052939;28;20381;-73
2021/06/29 10:29:34;;;;;;;0.70;0.70;;;30.50;75.80;;;;;;5050646;28;20021;-73
2021/06/29 10:32:07;;;;;;;2.13;0.70;;;30.50;76.20;;;;;;5051197;28;20024;-72
2021/06/29 10:34:34;;;;;;;2.63;0.60;;;30.40;76.20;;;;;;5034400;28;20033;-72
2021/06/29 10:36:59;;;;;;;0.80;0.80;;;30.40;76.60;;;;;;5034972;28;20458;-72
2021/06/29 10:39:27;;;;;;;1.33;0.70;;;30.20;75.50;;;;;;5052672;28;20087;-72
2021/06/29 10:42:02;;;;;;;0.73;0.70;;;29.70;74.90;;;;;;5053261;28;20100;-72
2021/06/29 10:44:40;;;;;;;2.13;0.80;;;29.20;75.00;;;;;;5052090;28;20112;-72
2021/06/29 10:47:25;;;;;;;0.70;0.70;;;28.90;76.40;;;;;;5043799;28;20037;-72
2021/06/29 10:49:54;;;;;;;0.70;0.70;;;28.80;77.60;;;;;;5034003;28;20025;-72
2021/06/29 10:52:23;;;;;;;0.60;0.60;;;28.70;77.70;;;;;;5033529;28;20025;-72
2021/06/29 10:54:54;;;;;;;59.28;45.95;;;28.60;77.80;;;;;;5047794;28;20393;-72
2021/06/29 10:57:24;;;;;;;1.38;1.38;;;28.60;78.50;;;;;;5052867;28;20025;-72
2021/06/29 10:59:55;;;;;;;2.20;0.88;;;28.50;78.30;;;;;;5035592;28;20025;-72
2021/06/29 11:02:33;;;;;;;3.72;0.90;;;28.40;78.20;;;;;;5052446;28;20052;-72
2021/06/29 11:05:01;;;;;;;3.42;0.80;;;28.20;77.40;;;;;;5051138;28;20488;-72
2021/06/29 11:07:26;;;;;;;0.70;0.70;;;28.10;77.30;;;;;;5052633;28;20025;-72
2021/06/29 11:09:54;;;;;;;2.60;0.82;;;28.00;78.00;;;;;;5052716;28;20082;-72
2021/06/29 11:12:29;;;;;;;0.57;0.57;;;28.10;77.90;;;;;;5034532;28;20028;-72
2021/06/29 11:14:57;;;;;;;0.50;0.50;;;28.00;78.30;;;;;;5051974;28;20044;-71
2021/06/29 11:17:53;;;;;;;0.70;0.70;;;27.90;77.20;;;;;;5024331;28;20524;-72
2021/06/29 11:20:22;;;;;;;1.25;0.73;;;27.80;78.20;;;;;;5048336;28;20063;-72
2021/06/29 11:23:11;;;;;;;2.65;0.80;;;27.80;78.10;;;;;;5052967;28;20021;-72
2021/06/29 11:25:47;;;;;;;1.55;0.80;;;27.80;77.00;;;;;;5051634;28;20032;-72
2021/06/29 11:28:26;;;;;;;1.38;0.60;;;27.70;77.50;;;;;;5052724;28;20051;-72
2021/06/29 11:30:57;;;;;;;1.15;0.70;;;27.60;77.00;;;;;;5052455;28;20021;-72
2021/06/29 11:33:29;;;;;;;0.60;0.60;;;27.50;75.70;;;;;;5052417;28;20029;-72
2021/06/29 11:35:54;;;;;;;1.35;0.80;;;27.20;78.20;;;;;;5051572;28;20473;-72
2021/06/29 11:38:41;;;;;;;3.08;0.80;;;27.00;79.00;;;;;;5052185;28;20047;-72
2021/06/29 11:41:29;;;;;;;0.80;0.80;;;26.80;79.00;;;;;;5051347;28;20110;-72
2021/06/29 11:44:06;;;;;;;1.35;0.90;;;26.80;79.90;;;;;;5034500;28;20063;-71
2021/06/29 11:46:47;;;;;;;1.05;0.52;;;26.90;78.90;;;;;;5047888;28;20462;-71
2021/06/29 11:49:15;;;;;;;0.88;0.70;;;27.10;78.70;;;;;;5047076;28;20052;-72
2021/06/29 11:51:53;;;;;;;0.60;0.60;;;27.20;79.10;;;;;;5034629;28;20024;-72
2021/06/29 11:54:28;;;;;;;2.03;0.90;;;27.20;78.40;;;;;;5051010;28;20116;-72
2021/06/29 11:56:56;;;;;;;0.63;0.60;;;27.10;78.30;;;;;;5037439;28;20039;-71
2021/06/29 11:59:26;;;;;;;0.98;0.63;;;27.00;78.70;;;;;;5052108;28;20103;-71
2021/06/29 12:02:06;;;;;;;0.52;0.52;;;26.90;77.70;;;;;;5051944;28;20029;-72
2021/06/29 12:04:32;;;;;;;0.80;0.68;;;26.90;78.20;;;;;;5050821;28;20055;-73
2021/06/29 12:07:08;;;;;;;0.50;0.50;;;27.00;78.10;;;;;;5051577;28;20043;-72
2021/06/29 12:09:35;;;;;;;27.27;22.75;;;27.10;76.70;;;;;;5051370;28;20028;-72
2021/06/29 12:12:23;;;;;;;1.48;1.38;;;27.20;77.20;;;;;;5050874;28;20112;-72
2021/06/29 12:14:58;;;;;;;1.92;0.80;;;27.30;76.50;;;;;;5029186;28;20055;-71
2021/06/29 12:17:24;;;;;;;1.52;0.60;;;27.30;75.70;;;;;;5041378;28;20025;-73
2021/06/29 12:20:00;;;;;;;0.77;0.60;;;27.20;75.70;;;;;;5048950;28;20075;-71
2021/06/29 12:22:27;;;;;;;1.52;0.82;;;27.20;75.70;;;;;;5051000;28;20055;-71
2021/06/29 12:24:53;;;;;;;3.65;0.63;;;27.30;75.80;;;;;;5048070;28;20071;-72
2021/06/29 12:27:18;;;;;;;3.80;0.80;;;27.30;75.80;;;;;;5048786;28;20432;-72
2021/06/29 12:29:44;;;;;;;1.20;0.80;;;27.40;74.80;;;;;;5040893;28;20025;-72
2021/06/29 12:32:24;;;;;;;2.33;0.70;;;27.40;74.50;;;;;;5035465;28;20033;-71
2021/06/29 12:35:04;;;;;;;0.60;0.60;;;27.40;75.00;;;;;;5049919;28;20029;-72
2021/06/29 12:37:29;;;;;;;1.15;0.70;;;27.50;74.90;;;;;;5050685;28;20059;-71
2021/06/29 12:40:07;;;;;;;0.40;0.40;;;27.60;74.20;;;;;;5050965;28;20036;-72
2021/06/29 12:42:33;;;;;;;2.78;0.73;;;27.70;73.30;;;;;;5051406;28;20400;-72
2021/06/29 12:45:11;;;;;;;0.60;0.60;;;27.80;73.90;;;;;;5050033;28;20108;-72
2021/06/29 12:47:37;;;;;;;0.60;0.50;;;27.90;73.70;;;;;;5046176;28;20958;-72
2021/06/29 12:50:06;;;;;;;0.85;0.40;;;28.00;73.00;;;;;;5048898;28;20036;-72
2021/06/29 12:52:31;;;;;;;0.50;0.50;;;27.90;71.00;;;;;;5041705;28;20025;-72
2021/06/29 12:55:14;;;;;;;0.68;0.68;;;27.80;70.00;;;;;;5049147;28;20547;-72